createdAt,value
2022-10-03T00:23:17.519Z,1026.92
2022-10-03T00:51:50.694Z,1027.05
2022-10-03T01:20:40.691Z,1027.5
2022-10-03T01:48:53.079Z,1027.73
2022-10-03T02:17:32.589Z,1027.61
2022-10-03T02:46:09.650Z,1027.45
2022-10-03T03:14:28.047Z,1027.48
2022-10-03T03:43:08.366Z,1027.41
2022-10-03T04:11:52.909Z,1027.65
2022-10-03T04:40:52.676Z,1027.79
2022-10-03T05:09:29.492Z,1027.84
2022-10-03T05:38:14.417Z,1028.07
2022-10-03T06:06:47.936Z,1028.49
2022-10-03T06:35:33.468Z,1028.52
2022-10-03T07:04:09.572Z,1028.75
2022-10-03T07:32:54.093Z,1028.83
2022-10-03T08:02:20.351Z,1029.17
2022-10-03T08:33:43.412Z,1028.98
2022-10-03T09:01:28.765Z,1028.96
2022-10-03T09:29:47.404Z,1029.33
2022-10-03T09:58:03.639Z,1029.2
2022-10-03T10:26:58.352Z,1029.15
2022-10-03T10:56:05.615Z,1029
2022-10-03T11:24:03.829Z,1028.67
2022-10-03T11:52:37.480Z,1028.48
2022-10-03T12:20:51.222Z,1028.31
2022-10-03T12:49:31.671Z,1028.06
2022-10-03T13:17:57.563Z,1027.91
2022-10-03T13:46:31.531Z,1027.62
2022-10-03T14:14:58.848Z,1027.26
2022-10-03T14:43:26.903Z,1027.29
2022-10-03T15:12:01.850Z,1027.2
2022-10-03T15:40:50.919Z,1027.15
2022-10-03T16:09:33.759Z,1026.86
2022-10-03T16:38:19.992Z,1027.03
2022-10-03T17:36:45.585Z,1026.9
2022-10-03T19:04:22.544Z,1026.69
2022-10-03T19:32:51.683Z,1026.53
2022-10-03T20:02:09.137Z,1026.54
2022-10-03T20:30:52.413Z,1026.36
2022-10-03T21:01:36.525Z,1026.31
